WXM80 ListenWXM80 Stop

You find our weather info also at:

UK Metoffice

WeatherCloud

Weather Underground

Northeastern Weather Network

AWEKAS

Citizen Weather Observer Program (CWOP)

HAMweather, WeatherForYou, PWS Weather


Weather Underground History page Text

Daily Summary for February 24, 2018 Units:  Both    English   Metric
« Previous Day
Next Day »
Daily Weekly Monthly Yearly Custom
  High: Low: Average:
Temperature: 56.2 °F /  13.4 °C 39.4 °F /  4.1 °C 46.2 °F /  7.9 °C
Dew Point: 48.0 °F /  8.9 °C 38.9 °F /  3.8 °C 43.5 °F /  6.4 °C
Humidity: 98 % 71 % 91 %
Wind Speed: 6.9 mph /  11.1 km/h - 1.5 mph /  2.4 km/h
Wind Gust: 13.0 mph /  20.9 km/h - -
Wind:- - SW
Pressure: 29.99 in /  1015.5 hPa 29.85 in /  1010.7 hPa -
Precipitation: 0.00 in /  0 mm    
Historical Graphs
 
 
Tabular Data for February 24, 2018
Time Temperature Dew Point Pressure Wind Wind Speed Wind Gust Humidity Rainfall Rate (Hourly)
00:04 39.4 °F /  4.1 °C 38.9 °F /  3.8 °C 29.91 in /  1012.8 hPa Calm     98 % 0.00 in /  0 mm
00:09 39.5 °F /  4.2 °C 39.0 °F /  3.9 °C 29.91 in /  1012.8 hPa Calm     98 % 0.00 in /  0 mm
00:14 39.5 °F /  4.2 °C 39.0 °F /  3.9 °C 29.91 in /  1012.8 hPa Calm     98 % 0.00 in /  0 mm
00:19 39.7 °F /  4.3 °C 39.2 °F /  4 °C 29.91 in /  1012.8 hPa Calm     98 % 0.00 in /  0 mm
00:24 39.8 °F /  4.3 °C 39.3 °F /  4.1 °C 29.91 in /  1012.8 hPa WSW 0.4 mph /  0.6 km/h 2.0 mph /  3.2 km/h 98 % 0.00 in /  0 mm
00:29 40.0 °F /  4.4 °C 39.5 °F /  4.2 °C 29.91 in /  1012.8 hPa WSW 0.9 mph /  1.4 km/h 1.2 mph /  1.9 km/h 98 % 0.00 in /  0 mm
00:39 40.3 °F /  4.6 °C 39.8 °F /  4.3 °C 29.91 in /  1012.8 hPa West 0.7 mph /  1.1 km/h 3.5 mph /  5.6 km/h 98 % 0.00 in /  0 mm
00:44 40.4 °F /  4.7 °C 39.9 °F /  4.4 °C 29.91 in /  1012.8 hPa Calm     98 % 0.00 in /  0 mm
00:50 40.4 °F /  4.7 °C 39.9 °F /  4.4 °C 29.90 in /  1012.4 hPa West 0.7 mph /  1.1 km/h 3.5 mph /  5.6 km/h 98 % 0.00 in /  0 mm
00:55 40.6 °F /  4.8 °C 40.1 °F /  4.5 °C 29.91 in /  1012.8 hPa WSW 1.8 mph /  2.9 km/h 5.0 mph /  8 km/h 98 % 0.00 in /  0 mm
01:00 40.7 °F /  4.8 °C 40.2 °F /  4.6 °C 29.90 in /  1012.4 hPa WSW 0.9 mph /  1.4 km/h 4.0 mph /  6.4 km/h 98 % 0.00 in /  0 mm
01:05 40.9 °F /  4.9 °C 40.4 °F /  4.7 °C 29.90 in /  1012.4 hPa West 2.9 mph /  4.7 km/h 6.9 mph /  11.1 km/h 98 % 0.00 in /  0 mm
01:10 41.0 °F /  5 °C 40.5 °F /  4.7 °C 29.89 in /  1012.1 hPa West 1.1 mph /  1.8 km/h 3.5 mph /  5.6 km/h 98 % 0.00 in /  0 mm
01:15 41.1 °F /  5.1 °C 40.6 °F /  4.8 °C 29.90 in /  1012.4 hPa West 3.3 mph /  5.3 km/h 5.8 mph /  9.3 km/h 98 % 0.00 in /  0 mm
01:20 41.3 °F /  5.2 °C 40.8 °F /  4.9 °C 29.89 in /  1012.1 hPa South 0.8 mph /  1.3 km/h 2.3 mph /  3.7 km/h 98 % 0.00 in /  0 mm
01:25 41.4 °F /  5.2 °C 40.9 °F /  4.9 °C 29.89 in /  1012.1 hPa SW 2.0 mph /  3.2 km/h 3.5 mph /  5.6 km/h 98 % 0.00 in /  0 mm
01:30 41.5 °F /  5.3 °C 41.0 °F /  5 °C 29.89 in /  1012.1 hPa West 2.6 mph /  4.2 km/h 3.5 mph /  5.6 km/h 98 % 0.00 in /  0 mm
01:35 41.6 °F /  5.3 °C 41.1 °F /  5.1 °C 29.89 in /  1012.1 hPa West 1.8 mph /  2.9 km/h 5.8 mph /  9.3 km/h 98 % 0.00 in /  0 mm
01:40 41.8 °F /  5.4 °C 41.3 °F /  5.2 °C 29.90 in /  1012.4 hPa West 1.6 mph /  2.6 km/h 3.5 mph /  5.6 km/h 98 % 0.00 in /  0 mm
01:45 41.9 °F /  5.5 °C 41.4 °F /  5.2 °C 29.90 in /  1012.4 hPa SW 0.3 mph /  0.5 km/h 2.3 mph /  3.7 km/h 98 % 0.00 in /  0 mm
01:50 42.0 °F /  5.6 °C 41.5 °F /  5.3 °C 29.89 in /  1012.1 hPa SW 1.3 mph /  2.1 km/h 3.5 mph /  5.6 km/h 98 % 0.00 in /  0 mm
01:52 42.0 °F /  5.6 °C 41.5 °F /  5.3 °C 29.89 in /  1012.1 hPa WSW 3.0 mph /  4.8 km/h 4.6 mph /  7.4 km/h 98 % 0.00 in /  0 mm
01:57 42.1 °F /  5.6 °C 41.6 °F /  5.3 °C 29.89 in /  1012.1 hPa West 3.2 mph /  5.1 km/h 6.9 mph /  11.1 km/h 98 % 0.00 in /  0 mm
02:02 42.2 °F /  5.7 °C 41.7 °F /  5.4 °C 29.89 in /  1012.1 hPa West 2.2 mph /  3.5 km/h 5.8 mph /  9.3 km/h 98 % 0.00 in /  0 mm
02:07 42.3 °F /  5.7 °C 41.8 °F /  5.4 °C 29.88 in /  1011.7 hPa West 1.0 mph /  1.6 km/h 3.5 mph /  5.6 km/h 98 % 0.00 in /  0 mm
02:12 42.3 °F /  5.7 °C 41.8 °F /  5.4 °C 29.88 in /  1011.7 hPa West 0.9 mph /  1.4 km/h 2.0 mph /  3.2 km/h 98 % 0.00 in /  0 mm
02:17 42.4 °F /  5.8 °C 41.9 °F /  5.5 °C 29.88 in /  1011.7 hPa WSW 5.5 mph /  8.9 km/h 10.0 mph /  16.1 km/h 98 % 0.00 in /  0 mm
02:22 42.4 °F /  5.8 °C 41.9 °F /  5.5 °C 29.89 in /  1012.1 hPa WNW 2.8 mph /  4.5 km/h 5.8 mph /  9.3 km/h 98 % 0.00 in /  0 mm
02:27 42.5 °F /  5.8 °C 42.0 °F /  5.6 °C 29.89 in /  1012.1 hPa West 4.5 mph /  7.2 km/h 9.2 mph /  14.8 km/h 98 % 0.00 in /  0 mm
02:32 42.5 °F /  5.8 °C 42.0 °F /  5.6 °C 29.89 in /  1012.1 hPa West 2.1 mph /  3.4 km/h 5.8 mph /  9.3 km/h 98 % 0.00 in /  0 mm
02:37 42.4 °F /  5.8 °C 41.9 °F /  5.5 °C 29.89 in /  1012.1 hPa SW 2.7 mph /  4.3 km/h 5.8 mph /  9.3 km/h 98 % 0.00 in /  0 mm
02:42 42.4 °F /  5.8 °C 41.9 °F /  5.5 °C 29.88 in /  1011.7 hPa SW 2.1 mph /  3.4 km/h 4.0 mph /  6.4 km/h 98 % 0.00 in /  0 mm
02:47 42.3 °F /  5.7 °C 41.8 °F /  5.4 °C 29.88 in /  1011.7 hPa WSW 2.0 mph /  3.2 km/h 6.9 mph /  11.1 km/h 98 % 0.00 in /  0 mm
02:52 42.3 °F /  5.7 °C 41.8 °F /  5.4 °C 29.88 in /  1011.7 hPa SW 4.0 mph /  6.4 km/h 9.2 mph /  14.8 km/h 98 % 0.00 in /  0 mm
02:58 42.3 °F /  5.7 °C 41.8 °F /  5.4 °C 29.88 in /  1011.7 hPa WSW 3.3 mph /  5.3 km/h 11.5 mph /  18.5 km/h 98 % 0.00 in /  0 mm
03:03 42.3 °F /  5.7 °C 41.8 °F /  5.4 °C 29.88 in /  1011.7 hPa SW 2.6 mph /  4.2 km/h 8.1 mph /  13 km/h 98 % 0.00 in /  0 mm
03:08 42.3 °F /  5.7 °C 41.8 °F /  5.4 °C 29.88 in /  1011.7 hPa West 4.8 mph /  7.7 km/h 9.2 mph /  14.8 km/h 98 % 0.00 in /  0 mm
03:13 42.2 °F /  5.7 °C 41.7 °F /  5.4 °C 29.87 in /  1011.4 hPa SW 3.1 mph /  5 km/h 7.0 mph /  11.3 km/h 98 % 0.00 in /  0 mm
03:18 42.3 °F /  5.7 °C 41.8 °F /  5.4 °C 29.87 in /  1011.4 hPa WSW 2.2 mph /  3.5 km/h 5.0 mph /  8 km/h 98 % 0.00 in /  0 mm
03:23 42.2 °F /  5.7 °C 41.7 °F /  5.4 °C 29.87 in /  1011.4 hPa WSW 4.4 mph /  7.1 km/h 6.9 mph /  11.1 km/h 98 % 0.00 in /  0 mm
03:28 42.2 °F /  5.7 °C 41.7 °F /  5.4 °C 29.87 in /  1011.4 hPa WSW 1.2 mph /  1.9 km/h 3.5 mph /  5.6 km/h 98 % 0.00 in /  0 mm
03:33 42.2 °F /  5.7 °C 41.7 °F /  5.4 °C 29.87 in /  1011.4 hPa WSW 1.8 mph /  2.9 km/h 3.5 mph /  5.6 km/h 98 % 0.00 in /  0 mm
03:38 42.2 °F /  5.7 °C 41.7 °F /  5.4 °C 29.87 in /  1011.4 hPa SW 3.4 mph /  5.5 km/h 6.0 mph /  9.7 km/h 98 % 0.00 in /  0 mm
03:43 42.3 °F /  5.7 °C 41.8 °F /  5.4 °C 29.87 in /  1011.4 hPa WSW 3.3 mph /  5.3 km/h 8.1 mph /  13 km/h 98 % 0.00 in /  0 mm
03:49 42.3 °F /  5.7 °C 41.8 °F /  5.4 °C 29.87 in /  1011.4 hPa SW 3.3 mph /  5.3 km/h 10.4 mph /  16.7 km/h 98 % 0.00 in /  0 mm
03:54 42.3 °F /  5.7 °C 41.8 °F /  5.4 °C 29.87 in /  1011.4 hPa WSW 4.7 mph /  7.6 km/h 8.0 mph /  12.9 km/h 98 % 0.00 in /  0 mm
03:59 42.3 °F /  5.7 °C 41.8 °F /  5.4 °C 29.86 in /  1011.1 hPa SSW 5.8 mph /  9.3 km/h 8.1 mph /  13 km/h 98 % 0.00 in /  0 mm
04:02 42.4 °F /  5.8 °C 41.9 °F /  5.5 °C 29.86 in /  1011.1 hPa SW 5.0 mph /  8 km/h 6.9 mph /  11.1 km/h 98 % 0.00 in /  0 mm
04:07 42.4 °F /  5.8 °C 41.6 °F /  5.3 °C 29.85 in /  1010.7 hPa SSW 3.9 mph /  6.3 km/h 6.9 mph /  11.1 km/h 97 % 0.00 in /  0 mm
04:12 42.4 °F /  5.8 °C 41.6 °F /  5.3 °C 29.86 in /  1011.1 hPa SW 3.9 mph /  6.3 km/h 6.0 mph /  9.7 km/h 97 % 0.00 in /  0 mm
04:17 42.4 °F /  5.8 °C 41.6 °F /  5.3 °C 29.86 in /  1011.1 hPa SW 2.1 mph /  3.4 km/h 3.5 mph /  5.6 km/h 97 % 0.00 in /  0 mm
04:22 42.4 °F /  5.8 °C 41.6 °F /  5.3 °C 29.86 in /  1011.1 hPa WNW 2.8 mph /  4.5 km/h 4.0 mph /  6.4 km/h 97 % 0.00 in /  0 mm
04:27 42.5 °F /  5.8 °C 41.7 °F /  5.4 °C 29.87 in /  1011.4 hPa WSW 0.2 mph /  0.3 km/h 2.3 mph /  3.7 km/h 97 % 0.00 in /  0 mm
04:32 42.5 °F /  5.8 °C 41.7 °F /  5.4 °C 29.86 in /  1011.1 hPa West 4.2 mph /  6.8 km/h 6.9 mph /  11.1 km/h 97 % 0.00 in /  0 mm
04:37 42.5 °F /  5.8 °C 41.7 °F /  5.4 °C 29.86 in /  1011.1 hPa WSW 2.9 mph /  4.7 km/h 8.1 mph /  13 km/h 97 % 0.00 in /  0 mm
04:42 42.6 °F /  5.9 °C 42.1 °F /  5.6 °C 29.86 in /  1011.1 hPa West 0.4 mph /  0.6 km/h 3.5 mph /  5.6 km/h 98 % 0.00 in /  0 mm
04:47 42.6 °F /  5.9 °C 41.8 °F /  5.4 °C 29.87 in /  1011.4 hPa WSW 3.4 mph /  5.5 km/h 7.0 mph /  11.3 km/h 97 % 0.00 in /  0 mm
04:52 42.6 °F /  5.9 °C 41.8 °F /  5.4 °C 29.87 in /  1011.4 hPa West 3.7 mph /  6 km/h 6.9 mph /  11.1 km/h 97 % 0.00 in /  0 mm
04:57 42.6 °F /  5.9 °C 41.8 °F /  5.4 °C 29.87 in /  1011.4 hPa WSW 3.9 mph /  6.3 km/h 5.8 mph /  9.3 km/h 97 % 0.00 in /  0 mm
05:02 42.6 °F /  5.9 °C 41.8 °F /  5.4 °C 29.87 in /  1011.4 hPa WSW 6.8 mph /  10.9 km/h 10.4 mph /  16.7 km/h 97 % 0.00 in /  0 mm
05:07 42.6 °F /  5.9 °C 41.8 °F /  5.4 °C 29.87 in /  1011.4 hPa SW 2.2 mph /  3.5 km/h 5.0 mph /  8 km/h 97 % 0.00 in /  0 mm
05:12 42.7 °F /  5.9 °C 41.9 °F /  5.5 °C 29.88 in /  1011.7 hPa West 6.6 mph /  10.6 km/h 11.5 mph /  18.5 km/h 97 % 0.00 in /  0 mm
05:17 42.7 °F /  5.9 °C 41.9 °F /  5.5 °C 29.88 in /  1011.7 hPa WSW 2.8 mph /  4.5 km/h 6.0 mph /  9.7 km/h 97 % 0.00 in /  0 mm
05:22 42.8 °F /  6 °C 42.0 °F /  5.6 °C 29.88 in /  1011.7 hPa WSW 6.9 mph /  11.1 km/h 13.0 mph /  20.9 km/h 97 % 0.00 in /  0 mm
05:27 42.8 °F /  6 °C 42.0 °F /  5.6 °C 29.88 in /  1011.7 hPa SW 1.6 mph /  2.6 km/h 6.9 mph /  11.1 km/h 97 % 0.00 in /  0 mm
05:32 42.7 °F /  5.9 °C 41.9 °F /  5.5 °C 29.88 in /  1011.7 hPa SW 4.9 mph /  7.9 km/h 10.4 mph /  16.7 km/h 97 % 0.00 in /  0 mm
05:37 42.7 °F /  5.9 °C 41.9 °F /  5.5 °C 29.89 in /  1012.1 hPa SSW 4.4 mph /  7.1 km/h 5.8 mph /  9.3 km/h 97 % 0.00 in /  0 mm
05:43 42.7 °F /  5.9 °C 41.9 °F /  5.5 °C 29.88 in /  1011.7 hPa West 4.2 mph /  6.8 km/h 8.1 mph /  13 km/h 97 % 0.00 in /  0 mm
05:48 42.8 °F /  6 °C 42.0 °F /  5.6 °C 29.88 in /  1011.7 hPa SW 2.8 mph /  4.5 km/h 6.9 mph /  11.1 km/h 97 % 0.00 in /  0 mm
05:53 42.7 °F /  5.9 °C 41.9 °F /  5.5 °C 29.88 in /  1011.7 hPa WSW 4.7 mph /  7.6 km/h 8.1 mph /  13 km/h 97 % 0.00 in /  0 mm
05:58 42.8 °F /  6 °C 42.0 °F /  5.6 °C 29.88 in /  1011.7 hPa West 3.0 mph /  4.8 km/h 6.9 mph /  11.1 km/h 97 % 0.00 in /  0 mm
06:03 42.8 °F /  6 °C 42.0 °F /  5.6 °C 29.88 in /  1011.7 hPa WSW 5.3 mph /  8.5 km/h 9.2 mph /  14.8 km/h 97 % 0.00 in /  0 mm
06:08 42.8 °F /  6 °C 42.0 °F /  5.6 °C 29.88 in /  1011.7 hPa Calm     97 % 0.00 in /  0 mm
06:13 42.9 °F /  6.1 °C 42.1 °F /  5.6 °C 29.89 in /  1012.1 hPa Calm     97 % 0.00 in /  0 mm
06:18 42.9 °F /  6.1 °C 42.1 °F /  5.6 °C 29.89 in /  1012.1 hPa WSW 4.7 mph /  7.6 km/h 6.0 mph /  9.7 km/h 97 % 0.00 in /  0 mm
06:23 42.9 °F /  6.1 °C 42.1 °F /  5.6 °C 29.89 in /  1012.1 hPa WSW 4.9 mph /  7.9 km/h 9.2 mph /  14.8 km/h 97 % 0.00 in /  0 mm
06:28 42.9 °F /  6.1 °C 42.1 °F /  5.6 °C 29.89 in /  1012.1 hPa WSW 4.7 mph /  7.6 km/h 6.9 mph /  11.1 km/h 97 % 0.00 in /  0 mm
06:33 43.0 °F /  6.1 °C 42.2 °F /  5.7 °C 29.89 in /  1012.1 hPa SW 5.0 mph /  8 km/h 8.1 mph /  13 km/h 97 % 0.00 in /  0 mm
06:38 43.1 °F /  6.2 °C 42.3 °F /  5.7 °C 29.89 in /  1012.1 hPa West 3.6 mph /  5.8 km/h 8.1 mph /  13 km/h 97 % 0.00 in /  0 mm
06:43 43.2 °F /  6.2 °C 42.4 °F /  5.8 °C 29.89 in /  1012.1 hPa West 4.6 mph /  7.4 km/h 6.9 mph /  11.1 km/h 97 % 0.00 in /  0 mm
06:48 43.3 °F /  6.3 °C 42.5 °F /  5.8 °C 29.90 in /  1012.4 hPa WSW 4.7 mph /  7.6 km/h 5.8 mph /  9.3 km/h 97 % 0.00 in /  0 mm
06:53 43.3 °F /  6.3 °C 42.5 °F /  5.8 °C 29.90 in /  1012.4 hPa WSW 4.1 mph /  6.6 km/h 5.8 mph /  9.3 km/h 97 % 0.00 in /  0 mm
06:58 43.4 °F /  6.3 °C 42.6 °F /  5.9 °C 29.90 in /  1012.4 hPa WSW 4.2 mph /  6.8 km/h 11.5 mph /  18.5 km/h 97 % 0.00 in /  0 mm
07:03 43.6 °F /  6.4 °C 42.8 °F /  6 °C 29.90 in /  1012.4 hPa WSW 5.4 mph /  8.7 km/h 5.8 mph /  9.3 km/h 97 % 0.00 in /  0 mm
07:08 43.8 °F /  6.6 °C 43.0 °F /  6.1 °C 29.91 in /  1012.8 hPa NW 2.1 mph /  3.4 km/h 4.6 mph /  7.4 km/h 97 % 0.00 in /  0 mm
07:13 44.0 °F /  6.7 °C 43.2 °F /  6.2 °C 29.91 in /  1012.8 hPa West 3.8 mph /  6.1 km/h 3.8 mph /  6.1 km/h 97 % 0.00 in /  0 mm
07:19 44.2 °F /  6.8 °C 43.4 °F /  6.3 °C 29.91 in /  1012.8 hPa WSW 3.5 mph /  5.6 km/h 6.9 mph /  11.1 km/h 97 % 0.00 in /  0 mm
07:24 44.3 °F /  6.8 °C 43.5 °F /  6.4 °C 29.91 in /  1012.8 hPa SW 4.0 mph /  6.4 km/h 5.8 mph /  9.3 km/h 97 % 0.00 in /  0 mm
07:29 44.3 °F /  6.8 °C 43.5 °F /  6.4 °C 29.91 in /  1012.8 hPa WSW 1.5 mph /  2.4 km/h 9.2 mph /  14.8 km/h 97 % 0.00 in /  0 mm
07:34 44.3 °F /  6.8 °C 43.2 °F /  6.2 °C 29.91 in /  1012.8 hPa WSW 3.1 mph /  5 km/h 4.6 mph /  7.4 km/h 96 % 0.00 in /  0 mm
07:39 44.3 °F /  6.8 °C 43.2 °F /  6.2 °C 29.91 in /  1012.8 hPa WSW 2.9 mph /  4.7 km/h 8.1 mph /  13 km/h 96 % 0.00 in /  0 mm
07:44 44.4 °F /  6.9 °C 43.3 °F /  6.3 °C 29.91 in /  1012.8 hPa SSW 2.6 mph /  4.2 km/h 3.5 mph /  5.6 km/h 96 % 0.00 in /  0 mm
07:49 44.5 °F /  6.9 °C 43.4 °F /  6.3 °C 29.91 in /  1012.8 hPa West 1.2 mph /  1.9 km/h 3.5 mph /  5.6 km/h 96 % 0.00 in /  0 mm
07:54 44.6 °F /  7 °C 43.5 °F /  6.4 °C 29.91 in /  1012.8 hPa WSW 5.3 mph /  8.5 km/h 8.1 mph /  13 km/h 96 % 0.00 in /  0 mm
07:59 44.8 °F /  7.1 °C 43.7 °F /  6.5 °C 29.91 in /  1012.8 hPa West 1.2 mph /  1.9 km/h 3.5 mph /  5.6 km/h 96 % 0.00 in /  0 mm
08:04 45.0 °F /  7.2 °C 43.9 °F /  6.6 °C 29.91 in /  1012.8 hPa WSW 1.8 mph /  2.9 km/h 3.5 mph /  5.6 km/h 96 % 0.00 in /  0 mm
08:09 45.3 °F /  7.4 °C 44.2 °F /  6.8 °C 29.91 in /  1012.8 hPa SSW 1.5 mph /  2.4 km/h 4.6 mph /  7.4 km/h 96 % 0.00 in /  0 mm
08:14 45.7 °F /  7.6 °C 44.9 °F /  7.2 °C 29.91 in /  1012.8 hPa WSW 4.1 mph /  6.6 km/h 7.0 mph /  11.3 km/h 97 % 0.00 in /  0 mm
08:19 46.1 °F /  7.8 °C 45.0 °F /  7.2 °C 29.91 in /  1012.8 hPa NW 2.4 mph /  3.9 km/h 3.5 mph /  5.6 km/h 96 % 0.00 in /  0 mm
08:24 46.4 °F /  8 °C 45.3 °F /  7.4 °C 29.90 in /  1012.4 hPa WNW 2.7 mph /  4.3 km/h 6.0 mph /  9.7 km/h 96 % 0.00 in /  0 mm
08:29 46.6 °F /  8.1 °C 45.5 °F /  7.5 °C 29.90 in /  1012.4 hPa WSW 3.1 mph /  5 km/h 5.8 mph /  9.3 km/h 96 % 0.00 in /  0 mm
08:34 46.9 °F /  8.3 °C 45.8 °F /  7.7 °C 29.90 in /  1012.4 hPa Calm   1.0 mph /  1.6 km/h 96 % 0.00 in /  0 mm
08:39 47.1 °F /  8.4 °C 45.7 °F /  7.6 °C 29.90 in /  1012.4 hPa WNW 2.7 mph /  4.3 km/h 5.0 mph /  8 km/h 95 % 0.00 in /  0 mm
08:44 47.3 °F /  8.5 °C 45.9 °F /  7.7 °C 29.90 in /  1012.4 hPa Calm   4.6 mph /  7.4 km/h 95 % 0.00 in /  0 mm
08:49 47.6 °F /  8.7 °C 46.0 °F /  7.8 °C 29.91 in /  1012.8 hPa WNW 1.2 mph /  1.9 km/h 3.5 mph /  5.6 km/h 94 % 0.00 in /  0 mm
08:54 47.8 °F /  8.8 °C 46.2 °F /  7.9 °C 29.90 in /  1012.4 hPa NW 2.4 mph /  3.9 km/h 4.6 mph /  7.4 km/h 94 % 0.00 in /  0 mm
08:59 48.0 °F /  8.9 °C 46.1 °F /  7.8 °C 29.91 in /  1012.8 hPa WSW 3.7 mph /  6 km/h 6.0 mph /  9.7 km/h 93 % 0.00 in /  0 mm
09:04 48.2 °F /  9 °C 46.0 °F /  7.8 °C 29.90 in /  1012.4 hPa WSW 2.9 mph /  4.7 km/h 4.6 mph /  7.4 km/h 92 % 0.00 in /  0 mm
09:09 48.5 °F /  9.2 °C 46.3 °F /  7.9 °C 29.90 in /  1012.4 hPa WNW 1.7 mph /  2.7 km/h 3.5 mph /  5.6 km/h 92 % 0.00 in /  0 mm
09:14 48.7 °F /  9.3 °C 46.2 °F /  7.9 °C 29.91 in /  1012.8 hPa West 0.9 mph /  1.4 km/h 4.0 mph /  6.4 km/h 91 % 0.00 in /  0 mm
09:19 49.2 °F /  9.6 °C 46.7 °F /  8.2 °C 29.90 in /  1012.4 hPa West 2.0 mph /  3.2 km/h 3.5 mph /  5.6 km/h 91 % 0.00 in /  0 mm
09:24 49.7 °F /  9.8 °C 46.9 °F /  8.3 °C 29.90 in /  1012.4 hPa West 0.2 mph /  0.3 km/h 1.2 mph /  1.9 km/h 90 % 0.00 in /  0 mm
09:29 50.2 °F /  10.1 °C 47.4 °F /  8.6 °C 29.90 in /  1012.4 hPa WNW 0.4 mph /  0.6 km/h 3.5 mph /  5.6 km/h 90 % 0.00 in /  0 mm
09:34 50.8 °F /  10.4 °C 47.4 °F /  8.6 °C 29.89 in /  1012.1 hPa Calm   3.5 mph /  5.6 km/h 88 % 0.00 in /  0 mm
09:39 51.2 °F /  10.7 °C 47.5 °F /  8.6 °C 29.90 in /  1012.4 hPa West 2.3 mph /  3.7 km/h 3.5 mph /  5.6 km/h 87 % 0.00 in /  0 mm
09:44 51.4 °F /  10.8 °C 47.0 °F /  8.3 °C 29.90 in /  1012.4 hPa WNW 0.1 mph /  0.2 km/h 2.3 mph /  3.7 km/h 85 % 0.00 in /  0 mm
09:49 51.5 °F /  10.8 °C 46.8 °F /  8.2 °C 29.90 in /  1012.4 hPa NW 0.4 mph /  0.6 km/h 3.5 mph /  5.6 km/h 84 % 0.00 in /  0 mm
09:54 51.6 °F /  10.9 °C 47.2 °F /  8.4 °C 29.90 in /  1012.4 hPa NNW 1.2 mph /  1.9 km/h 2.3 mph /  3.7 km/h 85 % 0.00 in /  0 mm
09:59 51.8 °F /  11 °C 47.4 °F /  8.6 °C 29.90 in /  1012.4 hPa NNW 0.3 mph /  0.5 km/h 1.2 mph /  1.9 km/h 85 % 0.00 in /  0 mm
10:05 52.3 °F /  11.3 °C 47.6 °F /  8.7 °C 29.90 in /  1012.4 hPa Calm   1.2 mph /  1.9 km/h 84 % 0.00 in /  0 mm
10:10 52.6 °F /  11.4 °C 47.9 °F /  8.8 °C 29.90 in /  1012.4 hPa North 0.3 mph /  0.5 km/h 1.2 mph /  1.9 km/h 84 % 0.00 in /  0 mm
10:15 52.6 °F /  11.4 °C 47.3 °F /  8.5 °C 29.89 in /  1012.1 hPa North 1.0 mph /  1.6 km/h 2.3 mph /  3.7 km/h 82 % 0.00 in /  0 mm
10:20 52.7 °F /  11.5 °C 47.0 °F /  8.3 °C 29.90 in /  1012.4 hPa Calm   3.5 mph /  5.6 km/h 81 % 0.00 in /  0 mm
10:25 52.8 °F /  11.6 °C 47.1 °F /  8.4 °C 29.90 in /  1012.4 hPa Calm     81 % 0.00 in /  0 mm
10:30 52.8 °F /  11.6 °C 47.5 °F /  8.6 °C 29.90 in /  1012.4 hPa North 1.2 mph /  1.9 km/h 3.5 mph /  5.6 km/h 82 % 0.00 in /  0 mm
10:35 52.8 °F /  11.6 °C 47.1 °F /  8.4 °C 29.90 in /  1012.4 hPa North 0.6 mph /  1 km/h 2.3 mph /  3.7 km/h 81 % 0.00 in /  0 mm
10:40 52.7 °F /  11.5 °C 47.0 °F /  8.3 °C 29.90 in /  1012.4 hPa North 0.1 mph /  0.2 km/h 1.0 mph /  1.6 km/h 81 % 0.00 in /  0 mm
10:45 52.7 °F /  11.5 °C 47.4 °F /  8.6 °C 29.90 in /  1012.4 hPa Calm     82 % 0.00 in /  0 mm
10:50 52.7 °F /  11.5 °C 46.7 °F /  8.2 °C 29.90 in /  1012.4 hPa SW 1.8 mph /  2.9 km/h 3.0 mph /  4.8 km/h 80 % 0.00 in /  0 mm
10:55 52.7 °F /  11.5 °C 47.0 °F /  8.3 °C 29.90 in /  1012.4 hPa SW 0.5 mph /  0.8 km/h 1.2 mph /  1.9 km/h 81 % 0.00 in /  0 mm
11:00 52.6 °F /  11.4 °C 46.6 °F /  8.1 °C 29.90 in /  1012.4 hPa Calm     80 % 0.00 in /  0 mm
11:05 52.5 °F /  11.4 °C 46.2 °F /  7.9 °C 29.90 in /  1012.4 hPa SW 0.4 mph /  0.6 km/h 2.0 mph /  3.2 km/h 79 % 0.00 in /  0 mm
11:10 52.3 °F /  11.3 °C 46.3 °F /  7.9 °C 29.90 in /  1012.4 hPa SW 0.1 mph /  0.2 km/h 2.0 mph /  3.2 km/h 80 % 0.00 in /  0 mm
11:15 52.3 °F /  11.3 °C 46.6 °F /  8.1 °C 29.90 in /  1012.4 hPa SW 0.5 mph /  0.8 km/h 2.3 mph /  3.7 km/h 81 % 0.00 in /  0 mm
11:20 52.4 °F /  11.3 °C 46.7 °F /  8.2 °C 29.89 in /  1012.1 hPa SW 0.7 mph /  1.1 km/h 2.3 mph /  3.7 km/h 81 % 0.00 in /  0 mm
11:25 52.5 °F /  11.4 °C 46.8 °F /  8.2 °C 29.89 in /  1012.1 hPa Calm     81 % 0.00 in /  0 mm
11:36 52.7 °F /  11.5 °C 46.7 °F /  8.2 °C 29.89 in /  1012.1 hPa Calm   2.0 mph /  3.2 km/h 80 % 0.00 in /  0 mm
11:40 52.8 °F /  11.6 °C 46.5 °F /  8.1 °C 29.89 in /  1012.1 hPa Calm     79 % 0.00 in /  0 mm
11:46 52.9 °F /  11.6 °C 46.9 °F /  8.3 °C 29.88 in /  1011.7 hPa Calm   2.0 mph /  3.2 km/h 80 % 0.00 in /  0 mm
11:51 53.1 °F /  11.7 °C 46.8 °F /  8.2 °C 29.88 in /  1011.7 hPa Calm     79 % 0.00 in /  0 mm
11:55 53.3 °F /  11.8 °C 47.3 °F /  8.5 °C 29.88 in /  1011.7 hPa WNW 1.1 mph /  1.8 km/h 3.0 mph /  4.8 km/h 80 % 0.00 in /  0 mm
12:01 53.5 °F /  11.9 °C 47.1 °F /  8.4 °C 29.89 in /  1012.1 hPa SSW 2.1 mph /  3.4 km/h 4.6 mph /  7.4 km/h 79 % 0.00 in /  0 mm
12:06 53.5 °F /  11.9 °C 46.5 °F /  8.1 °C 29.89 in /  1012.1 hPa SSW 1.9 mph /  3.1 km/h 4.0 mph /  6.4 km/h 77 % 0.00 in /  0 mm
12:11 53.5 °F /  11.9 °C 46.5 °F /  8.1 °C 29.89 in /  1012.1 hPa WSW 3.3 mph /  5.3 km/h 5.8 mph /  9.3 km/h 77 % 0.00 in /  0 mm
12:16 53.5 °F /  11.9 °C 46.5 °F /  8.1 °C 29.91 in /  1012.8 hPa SSW 3.0 mph /  4.8 km/h 6.9 mph /  11.1 km/h 77 % 0.00 in /  0 mm
12:21 53.5 °F /  11.9 °C 46.5 °F /  8.1 °C 29.91 in /  1012.8 hPa SW 2.2 mph /  3.5 km/h 6.9 mph /  11.1 km/h 77 % 0.00 in /  0 mm
12:26 53.4 °F /  11.9 °C 46.4 °F /  8 °C 29.91 in /  1012.8 hPa SSW 1.4 mph /  2.3 km/h 2.3 mph /  3.7 km/h 77 % 0.00 in /  0 mm
12:31 53.4 °F /  11.9 °C 46.4 °F /  8 °C 29.91 in /  1012.8 hPa Calm     77 % 0.00 in /  0 mm
12:36 53.6 °F /  12 °C 46.6 °F /  8.1 °C 29.91 in /  1012.8 hPa SW 1.0 mph /  1.6 km/h 3.5 mph /  5.6 km/h 77 % 0.00 in /  0 mm
12:41 54.0 °F /  12.2 °C 47.3 °F /  8.5 °C 29.91 in /  1012.8 hPa Calm   2.3 mph /  3.7 km/h 78 % 0.00 in /  0 mm
12:46 54.4 °F /  12.4 °C 48.0 °F /  8.9 °C 29.90 in /  1012.4 hPa West 3.3 mph /  5.3 km/h 3.5 mph /  5.6 km/h 79 % 0.00 in /  0 mm
12:51 54.6 °F /  12.6 °C 47.5 °F /  8.6 °C 29.89 in /  1012.1 hPa WSW 2.4 mph /  3.9 km/h 3.5 mph /  5.6 km/h 77 % 0.00 in /  0 mm
12:56 55.0 °F /  12.8 °C 47.6 °F /  8.7 °C 29.89 in /  1012.1 hPa West 1.8 mph /  2.9 km/h 4.6 mph /  7.4 km/h 76 % 0.00 in /  0 mm
13:01 55.2 °F /  12.9 °C 47.4 °F /  8.6 °C 29.88 in /  1011.7 hPa WSW 2.3 mph /  3.7 km/h 4.6 mph /  7.4 km/h 75 % 0.00 in /  0 mm
13:06 55.4 °F /  13 °C 47.2 °F /  8.4 °C 29.88 in /  1011.7 hPa WSW 1.8 mph /  2.9 km/h 4.6 mph /  7.4 km/h 74 % 0.00 in /  0 mm
13:11 55.5 °F /  13.1 °C 47.3 °F /  8.5 °C 29.89 in /  1012.1 hPa West 1.9 mph /  3.1 km/h 3.5 mph /  5.6 km/h 74 % 0.00 in /  0 mm
13:16 55.5 °F /  13.1 °C 47.3 °F /  8.5 °C 29.88 in /  1011.7 hPa Calm     74 % 0.00 in /  0 mm
13:22 55.6 °F /  13.1 °C 47.8 °F /  8.8 °C 29.87 in /  1011.4 hPa Calm   1.2 mph /  1.9 km/h 75 % 0.00 in /  0 mm
13:27 55.8 °F /  13.2 °C 47.3 °F /  8.5 °C 29.87 in /  1011.4 hPa West 0.1 mph /  0.2 km/h 2.3 mph /  3.7 km/h 73 % 0.00 in /  0 mm
13:32 55.9 °F /  13.3 °C 47.7 °F /  8.7 °C 29.87 in /  1011.4 hPa NW 0.6 mph /  1 km/h 4.0 mph /  6.4 km/h 74 % 0.00 in /  0 mm
13:37 56.2 °F /  13.4 °C 47.7 °F /  8.7 °C 29.87 in /  1011.4 hPa NW 0.6 mph /  1 km/h 3.0 mph /  4.8 km/h 73 % 0.00 in /  0 mm
13:42 56.2 °F /  13.4 °C 47.3 °F /  8.5 °C 29.88 in /  1011.7 hPa West 1.2 mph /  1.9 km/h 3.5 mph /  5.6 km/h 72 % 0.00 in /  0 mm
13:47 56.2 °F /  13.4 °C 47.3 °F /  8.5 °C 29.87 in /  1011.4 hPa Calm     72 % 0.00 in /  0 mm
13:52 56.0 °F /  13.3 °C 46.7 °F /  8.2 °C 29.87 in /  1011.4 hPa WNW 0.7 mph /  1.1 km/h 2.3 mph /  3.7 km/h 71 % 0.00 in /  0 mm
13:57 55.9 °F /  13.3 °C 46.6 °F /  8.1 °C 29.87 in /  1011.4 hPa Calm     71 % 0.00 in /  0 mm
14:02 55.8 °F /  13.2 °C 46.9 °F /  8.3 °C 29.87 in /  1011.4 hPa Calm     72 % 0.00 in /  0 mm
14:07 55.5 °F /  13.1 °C 46.6 °F /  8.1 °C 29.86 in /  1011.1 hPa Calm     72 % 0.00 in /  0 mm
14:12 55.3 °F /  12.9 °C 47.5 °F /  8.6 °C 29.87 in /  1011.4 hPa WNW 0.1 mph /  0.2 km/h 1.2 mph /  1.9 km/h 75 % 0.00 in /  0 mm
14:17 55.1 °F /  12.8 °C 47.0 °F /  8.3 °C 29.87 in /  1011.4 hPa Calm     74 % 0.00 in /  0 mm
14:22 54.9 °F /  12.7 °C 46.4 °F /  8 °C 29.88 in /  1011.7 hPa Calm   1.2 mph /  1.9 km/h 73 % 0.00 in /  0 mm
14:27 54.7 °F /  12.6 °C 46.2 °F /  7.9 °C 29.89 in /  1012.1 hPa WNW 0.1 mph /  0.2 km/h 2.3 mph /  3.7 km/h 73 % 0.00 in /  0 mm
14:32 54.5 °F /  12.5 °C 46.4 °F /  8 °C 29.91 in /  1012.8 hPa WNW 0.2 mph /  0.3 km/h 2.0 mph /  3.2 km/h 74 % 0.00 in /  0 mm
14:37 54.3 °F /  12.4 °C 46.2 °F /  7.9 °C 29.91 in /  1012.8 hPa Calm   1.2 mph /  1.9 km/h 74 % 0.00 in /  0 mm
14:42 54.0 °F /  12.2 °C 46.3 °F /  7.9 °C 29.91 in /  1012.8 hPa WNW 0.1 mph /  0.2 km/h 3.5 mph /  5.6 km/h 75 % 0.00 in /  0 mm
14:47 53.8 °F /  12.1 °C 46.4 °F /  8 °C 29.90 in /  1012.4 hPa Calm     76 % 0.00 in /  0 mm
14:52 53.6 °F /  12 °C 46.6 °F /  8.1 °C 29.90 in /  1012.4 hPa Calm     77 % 0.00 in /  0 mm
14:58 53.4 °F /  11.9 °C 47.0 °F /  8.3 °C 29.90 in /  1012.4 hPa Calm     79 % 0.00 in /  0 mm
15:03 53.1 °F /  11.7 °C 47.4 °F /  8.6 °C 29.89 in /  1012.1 hPa Calm     81 % 0.00 in /  0 mm
15:08 52.9 °F /  11.6 °C 47.6 °F /  8.7 °C 29.89 in /  1012.1 hPa Calm     82 % 0.00 in /  0 mm
15:13 52.7 °F /  11.5 °C 47.4 °F /  8.6 °C 29.89 in /  1012.1 hPa Calm   1.2 mph /  1.9 km/h 82 % 0.00 in /  0 mm
15:18 52.3 °F /  11.3 °C 47.0 °F /  8.3 °C 29.88 in /  1011.7 hPa Calm     82 % 0.00 in /  0 mm
15:23 52.0 °F /  11.1 °C 47.0 °F /  8.3 °C 29.88 in /  1011.7 hPa Calm     83 % 0.00 in /  0 mm
15:28 51.5 °F /  10.8 °C 46.5 °F /  8.1 °C 29.88 in /  1011.7 hPa Calm     83 % 0.00 in /  0 mm
15:33 51.0 °F /  10.6 °C 46.0 °F /  7.8 °C 29.89 in /  1012.1 hPa Calm     83 % 0.00 in /  0 mm
15:38 50.7 °F /  10.4 °C 46.0 °F /  7.8 °C 29.89 in /  1012.1 hPa Calm     84 % 0.00 in /  0 mm
15:43 50.3 °F /  10.2 °C 45.6 °F /  7.6 °C 29.89 in /  1012.1 hPa Calm     84 % 0.00 in /  0 mm
15:48 49.8 °F /  9.9 °C 44.8 °F /  7.1 °C 29.90 in /  1012.4 hPa Calm     83 % 0.00 in /  0 mm
15:53 49.4 °F /  9.7 °C 44.8 °F /  7.1 °C 29.92 in /  1013.1 hPa Calm     84 % 0.00 in /  0 mm
15:58 49.2 °F /  9.6 °C 44.9 °F /  7.2 °C 29.92 in /  1013.1 hPa Calm     85 % 0.00 in /  0 mm
16:03 49.0 °F /  9.4 °C 45.0 °F /  7.2 °C 29.92 in /  1013.1 hPa WNW 2.0 mph /  3.2 km/h 3.5 mph /  5.6 km/h 86 % 0.00 in /  0 mm
16:07 48.8 °F /  9.3 °C 44.8 °F /  7.1 °C 29.93 in /  1013.4 hPa WNW 0.5 mph /  0.8 km/h 2.3 mph /  3.7 km/h 86 % 0.00 in /  0 mm
16:12 48.5 °F /  9.2 °C 44.8 °F /  7.1 °C 29.93 in /  1013.4 hPa WNW 1.9 mph /  3.1 km/h 3.5 mph /  5.6 km/h 87 % 0.00 in /  0 mm
16:17 48.2 °F /  9 °C 44.5 °F /  6.9 °C 29.95 in /  1014.1 hPa WNW 0.1 mph /  0.2 km/h 1.2 mph /  1.9 km/h 87 % 0.00 in /  0 mm
16:22 47.9 °F /  8.8 °C 44.2 °F /  6.8 °C 29.93 in /  1013.4 hPa NW 1.5 mph /  2.4 km/h 3.5 mph /  5.6 km/h 87 % 0.00 in /  0 mm
16:27 47.5 °F /  8.6 °C 44.1 °F /  6.7 °C 29.93 in /  1013.4 hPa North 1.0 mph /  1.6 km/h 2.3 mph /  3.7 km/h 88 % 0.00 in /  0 mm
16:31 47.2 °F /  8.4 °C 43.8 °F /  6.6 °C 29.93 in /  1013.4 hPa North 1.2 mph /  1.9 km/h 2.3 mph /  3.7 km/h 88 % 0.00 in /  0 mm
16:36 46.9 °F /  8.3 °C 43.8 °F /  6.6 °C 29.92 in /  1013.1 hPa NNE 2.0 mph /  3.2 km/h 3.0 mph /  4.8 km/h 89 % 0.00 in /  0 mm
16:41 46.6 °F /  8.1 °C 43.5 °F /  6.4 °C 29.92 in /  1013.1 hPa NE 2.8 mph /  4.5 km/h 4.6 mph /  7.4 km/h 89 % 0.00 in /  0 mm
16:42 46.6 °F /  8.1 °C 43.5 °F /  6.4 °C 29.91 in /  1012.8 hPa NE 2.4 mph /  3.9 km/h 4.6 mph /  7.4 km/h 89 % 0.00 in /  0 mm
16:47 46.4 °F /  8 °C 43.6 °F /  6.4 °C 29.91 in /  1012.8 hPa NE 0.4 mph /  0.6 km/h 1.2 mph /  1.9 km/h 90 % 0.00 in /  0 mm
16:52 46.3 °F /  7.9 °C 43.5 °F /  6.4 °C 29.92 in /  1013.1 hPa NNE 0.9 mph /  1.4 km/h 2.3 mph /  3.7 km/h 90 % 0.00 in /  0 mm
16:57 46.2 °F /  7.9 °C 43.4 °F /  6.3 °C 29.92 in /  1013.1 hPa NE 0.5 mph /  0.8 km/h 3.0 mph /  4.8 km/h 90 % 0.00 in /  0 mm
17:02 46.0 °F /  7.8 °C 43.2 °F /  6.2 °C 29.93 in /  1013.4 hPa NNE 1.8 mph /  2.9 km/h 3.5 mph /  5.6 km/h 90 % 0.00 in /  0 mm
17:03 46.0 °F /  7.8 °C 43.2 °F /  6.2 °C 29.93 in /  1013.4 hPa NNE 1.4 mph /  2.3 km/h 3.5 mph /  5.6 km/h 90 % 0.00 in /  0 mm
17:08 45.9 °F /  7.7 °C 43.1 °F /  6.2 °C 29.93 in /  1013.4 hPa NNE 0.1 mph /  0.2 km/h 1.2 mph /  1.9 km/h 90 % 0.00 in /  0 mm
17:13 45.8 °F /  7.7 °C 43.3 °F /  6.3 °C 29.93 in /  1013.4 hPa Calm     91 % 0.00 in /  0 mm
17:18 45.6 °F /  7.6 °C 43.1 °F /  6.2 °C 29.93 in /  1013.4 hPa NNE 1.3 mph /  2.1 km/h 3.0 mph /  4.8 km/h 91 % 0.00 in /  0 mm
17:23 45.6 °F /  7.6 °C 43.1 °F /  6.2 °C 29.95 in /  1014.1 hPa Calm   1.2 mph /  1.9 km/h 91 % 0.00 in /  0 mm
17:24 45.6 °F /  7.6 °C 43.1 °F /  6.2 °C 29.95 in /  1014.1 hPa North 0.2 mph /  0.3 km/h 1.2 mph /  1.9 km/h 91 % 0.00 in /  0 mm
17:29 45.5 °F /  7.5 °C 43.3 °F /  6.3 °C 29.95 in /  1014.1 hPa Calm     92 % 0.00 in /  0 mm
17:34 45.5 °F /  7.5 °C 43.3 °F /  6.3 °C 29.94 in /  1013.8 hPa Calm     92 % 0.00 in /  0 mm
17:39 45.5 °F /  7.5 °C 43.3 °F /  6.3 °C 29.93 in /  1013.4 hPa Calm     92 % 0.00 in /  0 mm
17:45 45.4 °F /  7.4 °C 43.2 °F /  6.2 °C 29.94 in /  1013.8 hPa Calm     92 % 0.00 in /  0 mm
17:50 45.4 °F /  7.4 °C 43.2 °F /  6.2 °C 29.93 in /  1013.4 hPa Calm     92 % 0.00 in /  0 mm
17:55 45.3 °F /  7.4 °C 43.1 °F /  6.2 °C 29.92 in /  1013.1 hPa Calm     92 % 0.00 in /  0 mm
18:00 45.2 °F /  7.3 °C 43.0 °F /  6.1 °C 29.92 in /  1013.1 hPa Calm     92 % 0.00 in /  0 mm
18:07 45.1 °F /  7.3 °C 42.9 °F /  6.1 °C 29.93 in /  1013.4 hPa Calm     92 % 0.00 in /  0 mm
18:12 45.1 °F /  7.3 °C 42.9 °F /  6.1 °C 29.92 in /  1013.1 hPa North 0.1 mph /  0.2 km/h 3.5 mph /  5.6 km/h 92 % 0.00 in /  0 mm
18:17 45.0 °F /  7.2 °C 42.8 °F /  6 °C 29.92 in /  1013.1 hPa Calm     92 % 0.00 in /  0 mm
18:22 45.0 °F /  7.2 °C 42.8 °F /  6 °C 29.92 in /  1013.1 hPa Calm     92 % 0.00 in /  0 mm
18:27 44.9 °F /  7.2 °C 43.0 °F /  6.1 °C 29.93 in /  1013.4 hPa Calm   2.3 mph /  3.7 km/h 93 % 0.00 in /  0 mm
18:32 44.9 °F /  7.2 °C 43.0 °F /  6.1 °C 29.93 in /  1013.4 hPa Calm     93 % 0.00 in /  0 mm
18:37 44.9 °F /  7.2 °C 43.0 °F /  6.1 °C 29.92 in /  1013.1 hPa Calm     93 % 0.00 in /  0 mm
18:43 44.9 °F /  7.2 °C 43.0 °F /  6.1 °C 29.92 in /  1013.1 hPa NNE 0.3 mph /  0.5 km/h 2.0 mph /  3.2 km/h 93 % 0.00 in /  0 mm
18:48 44.9 °F /  7.2 °C 43.0 °F /  6.1 °C 29.91 in /  1012.8 hPa NNE 0.3 mph /  0.5 km/h 2.3 mph /  3.7 km/h 93 % 0.00 in /  0 mm
18:52 45.0 °F /  7.2 °C 43.1 °F /  6.2 °C 29.91 in /  1012.8 hPa Calm   2.3 mph /  3.7 km/h 93 % 0.00 in /  0 mm
18:57 45.0 °F /  7.2 °C 43.1 °F /  6.2 °C 29.92 in /  1013.1 hPa NNE 0.3 mph /  0.5 km/h 1.2 mph /  1.9 km/h 93 % 0.00 in /  0 mm
19:02 45.0 °F /  7.2 °C 43.4 °F /  6.3 °C 29.92 in /  1013.1 hPa Calm   1.0 mph /  1.6 km/h 94 % 0.00 in /  0 mm
19:07 45.0 °F /  7.2 °C 43.4 °F /  6.3 °C 29.92 in /  1013.1 hPa NNE 0.1 mph /  0.2 km/h 2.0 mph /  3.2 km/h 94 % 0.00 in /  0 mm
19:12 45.1 °F /  7.3 °C 43.5 °F /  6.4 °C 29.93 in /  1013.4 hPa Calm     94 % 0.00 in /  0 mm
19:17 45.1 °F /  7.3 °C 43.5 °F /  6.4 °C 29.93 in /  1013.4 hPa Calm     94 % 0.00 in /  0 mm
19:22 45.0 °F /  7.2 °C 43.4 °F /  6.3 °C 29.93 in /  1013.4 hPa Calm     94 % 0.00 in /  0 mm
19:27 45.0 °F /  7.2 °C 43.4 °F /  6.3 °C 29.93 in /  1013.4 hPa Calm     94 % 0.00 in /  0 mm
19:32 44.9 °F /  7.2 °C 43.3 °F /  6.3 °C 29.93 in /  1013.4 hPa Calm     94 % 0.00 in /  0 mm
19:37 44.9 °F /  7.2 °C 43.3 °F /  6.3 °C 29.93 in /  1013.4 hPa Calm     94 % 0.00 in /  0 mm
19:42 44.8 °F /  7.1 °C 43.2 °F /  6.2 °C 29.94 in /  1013.8 hPa Calm     94 % 0.00 in /  0 mm
19:47 44.7 °F /  7.1 °C 43.1 °F /  6.2 °C 29.94 in /  1013.8 hPa Calm     94 % 0.00 in /  0 mm
19:52 44.7 °F /  7.1 °C 43.1 °F /  6.2 °C 29.94 in /  1013.8 hPa Calm     94 % 0.00 in /  0 mm
19:57 44.7 °F /  7.1 °C 43.1 °F /  6.2 °C 29.94 in /  1013.8 hPa Calm     94 % 0.00 in /  0 mm
20:02 44.6 °F /  7 °C 43.0 °F /  6.1 °C 29.95 in /  1014.1 hPa NE 2.0 mph /  3.2 km/h 3.5 mph /  5.6 km/h 94 % 0.00 in /  0 mm
20:08 44.6 °F /  7 °C 43.0 °F /  6.1 °C 29.95 in /  1014.1 hPa NE 0.1 mph /  0.2 km/h 1.2 mph /  1.9 km/h 94 % 0.00 in /  0 mm
20:13 44.5 °F /  6.9 °C 42.9 °F /  6.1 °C 29.95 in /  1014.1 hPa Calm   2.3 mph /  3.7 km/h 94 % 0.00 in /  0 mm
20:18 44.4 °F /  6.9 °C 42.8 °F /  6 °C 29.95 in /  1014.1 hPa Calm   2.3 mph /  3.7 km/h 94 % 0.00 in /  0 mm
20:23 44.3 °F /  6.8 °C 42.7 °F /  5.9 °C 29.97 in /  1014.8 hPa NE 1.2 mph /  1.9 km/h 2.3 mph /  3.7 km/h 94 % 0.00 in /  0 mm
20:28 44.2 °F /  6.8 °C 42.6 °F /  5.9 °C 29.97 in /  1014.8 hPa NE 1.6 mph /  2.6 km/h 3.5 mph /  5.6 km/h 94 % 0.00 in /  0 mm
20:33 44.0 °F /  6.7 °C 42.4 °F /  5.8 °C 29.97 in /  1014.8 hPa NNE 1.6 mph /  2.6 km/h 3.5 mph /  5.6 km/h 94 % 0.00 in /  0 mm
20:38 43.8 °F /  6.6 °C 42.2 °F /  5.7 °C 29.97 in /  1014.8 hPa NNW 2.7 mph /  4.3 km/h 4.6 mph /  7.4 km/h 94 % 0.00 in /  0 mm
20:43 43.6 °F /  6.4 °C 42.0 °F /  5.6 °C 29.98 in /  1015.1 hPa NNE 2.8 mph /  4.5 km/h 5.8 mph /  9.3 km/h 94 % 0.00 in /  0 mm
20:48 43.4 °F /  6.3 °C 41.8 °F /  5.4 °C 29.97 in /  1014.8 hPa North 3.3 mph /  5.3 km/h 5.0 mph /  8 km/h 94 % 0.00 in /  0 mm
20:53 43.2 °F /  6.2 °C 41.3 °F /  5.2 °C 29.98 in /  1015.1 hPa NNW 2.5 mph /  4 km/h 3.5 mph /  5.6 km/h 93 % 0.00 in /  0 mm
20:58 43.0 °F /  6.1 °C 41.1 °F /  5.1 °C 29.98 in /  1015.1 hPa North 3.9 mph /  6.3 km/h 6.0 mph /  9.7 km/h 93 % 0.00 in /  0 mm
21:03 42.9 °F /  6.1 °C 41.3 °F /  5.2 °C 29.98 in /  1015.1 hPa North 3.4 mph /  5.5 km/h 6.9 mph /  11.1 km/h 94 % 0.00 in /  0 mm
21:08 42.7 °F /  5.9 °C 41.1 °F /  5.1 °C 29.99 in /  1015.5 hPa NNW 1.9 mph /  3.1 km/h 3.5 mph /  5.6 km/h 94 % 0.00 in /  0 mm
21:13 42.6 °F /  5.9 °C 41.0 °F /  5 °C 29.98 in /  1015.1 hPa NNW 0.7 mph /  1.1 km/h 2.3 mph /  3.7 km/h 94 % 0.00 in /  0 mm
21:18 42.5 °F /  5.8 °C 40.9 °F /  4.9 °C 29.98 in /  1015.1 hPa NNE 3.5 mph /  5.6 km/h 8.1 mph /  13 km/h 94 % 0.00 in /  0 mm
21:23 42.4 °F /  5.8 °C 40.8 °F /  4.9 °C 29.97 in /  1014.8 hPa NNE 3.0 mph /  4.8 km/h 3.5 mph /  5.6 km/h 94 % 0.00 in /  0 mm
21:28 42.4 °F /  5.8 °C 40.8 °F /  4.9 °C 29.97 in /  1014.8 hPa NNE 2.6 mph /  4.2 km/h 3.5 mph /  5.6 km/h 94 % 0.00 in /  0 mm
21:34 42.3 °F /  5.7 °C 40.7 °F /  4.8 °C 29.97 in /  1014.8 hPa North 2.4 mph /  3.9 km/h 4.0 mph /  6.4 km/h 94 % 0.00 in /  0 mm
21:39 42.2 °F /  5.7 °C 40.6 °F /  4.8 °C 29.97 in /  1014.8 hPa North 1.8 mph /  2.9 km/h 3.5 mph /  5.6 km/h 94 % 0.00 in /  0 mm
21:44 42.2 °F /  5.7 °C 40.6 °F /  4.8 °C 29.97 in /  1014.8 hPa North 0.8 mph /  1.3 km/h 2.3 mph /  3.7 km/h 94 % 0.00 in /  0 mm
21:49 42.1 °F /  5.6 °C 40.5 °F /  4.7 °C 29.97 in /  1014.8 hPa Calm     94 % 0.00 in /  0 mm
21:54 42.1 °F /  5.6 °C 40.5 °F /  4.7 °C 29.97 in /  1014.8 hPa Calm   1.2 mph /  1.9 km/h 94 % 0.00 in /  0 mm
21:59 42.0 °F /  5.6 °C 40.4 °F /  4.7 °C 29.97 in /  1014.8 hPa Calm     94 % 0.00 in /  0 mm
22:04 41.9 °F /  5.5 °C 40.3 °F /  4.6 °C 29.97 in /  1014.8 hPa Calm   1.2 mph /  1.9 km/h 94 % 0.00 in /  0 mm
22:09 41.8 °F /  5.4 °C 40.2 °F /  4.6 °C 29.97 in /  1014.8 hPa Calm     94 % 0.00 in /  0 mm
22:14 41.8 °F /  5.4 °C 40.2 °F /  4.6 °C 29.96 in /  1014.4 hPa NNE 0.9 mph /  1.4 km/h 3.5 mph /  5.6 km/h 94 % 0.00 in /  0 mm
22:19 41.7 °F /  5.4 °C 40.1 °F /  4.5 °C 29.97 in /  1014.8 hPa Calm     94 % 0.00 in /  0 mm
22:24 41.8 °F /  5.4 °C 40.5 °F /  4.7 °C 29.97 in /  1014.8 hPa Calm     95 % 0.00 in /  0 mm
22:29 41.7 °F /  5.4 °C 40.4 °F /  4.7 °C 29.97 in /  1014.8 hPa Calm     95 % 0.00 in /  0 mm
22:34 41.8 °F /  5.4 °C 40.5 °F /  4.7 °C 29.97 in /  1014.8 hPa Calm     95 % 0.00 in /  0 mm
22:39 41.8 °F /  5.4 °C 40.5 °F /  4.7 °C 29.96 in /  1014.4 hPa NNE 0.5 mph /  0.8 km/h 2.3 mph /  3.7 km/h 95 % 0.00 in /  0 mm
22:44 41.8 °F /  5.4 °C 40.5 °F /  4.7 °C 29.96 in /  1014.4 hPa NNE 1.0 mph /  1.6 km/h 3.5 mph /  5.6 km/h 95 % 0.00 in /  0 mm
22:49 42.0 °F /  5.6 °C 40.7 °F /  4.8 °C 29.97 in /  1014.8 hPa Calm     95 % 0.00 in /  0 mm
22:54 41.9 °F /  5.5 °C 40.6 °F /  4.8 °C 29.96 in /  1014.4 hPa NE 0.2 mph /  0.3 km/h 3.0 mph /  4.8 km/h 95 % 0.00 in /  0 mm
22:59 42.0 °F /  5.6 °C 40.7 °F /  4.8 °C 29.97 in /  1014.8 hPa Calm     95 % 0.00 in /  0 mm
23:04 42.0 °F /  5.6 °C 40.7 °F /  4.8 °C 29.97 in /  1014.8 hPa Calm     95 % 0.00 in /  0 mm
23:09 42.0 °F /  5.6 °C 40.7 °F /  4.8 °C 29.97 in /  1014.8 hPa NE 0.4 mph /  0.6 km/h   95 % 0.00 in /  0 mm
23:15 41.9 °F /  5.5 °C 40.6 °F /  4.8 °C 29.97 in /  1014.8 hPa Calm   1.2 mph /  1.9 km/h 95 % 0.00 in /  0 mm
23:20 41.9 °F /  5.5 °C 40.6 °F /  4.8 °C 29.97 in /  1014.8 hPa Calm     95 % 0.00 in /  0 mm
23:25 41.9 °F /  5.5 °C 40.6 °F /  4.8 °C 29.96 in /  1014.4 hPa NE 0.1 mph /  0.2 km/h 1.2 mph /  1.9 km/h 95 % 0.00 in /  0 mm
23:30 41.8 °F /  5.4 °C 40.5 °F /  4.7 °C 29.97 in /  1014.8 hPa NE 1.9 mph /  3.1 km/h 3.5 mph /  5.6 km/h 95 % 0.00 in /  0 mm
23:35 41.8 °F /  5.4 °C 40.5 °F /  4.7 °C 29.96 in /  1014.4 hPa ENE 2.9 mph /  4.7 km/h 4.6 mph /  7.4 km/h 95 % 0.00 in /  0 mm
23:40 41.7 °F /  5.4 °C 40.4 °F /  4.7 °C 29.96 in /  1014.4 hPa ENE 2.6 mph /  4.2 km/h 3.5 mph /  5.6 km/h 95 % 0.00 in /  0 mm
23:45 41.7 °F /  5.4 °C 40.4 °F /  4.7 °C 29.96 in /  1014.4 hPa ENE 1.5 mph /  2.4 km/h 3.5 mph /  5.6 km/h 95 % 0.00 in /  0 mm
23:50 41.6 °F /  5.3 °C 40.3 °F /  4.6 °C 29.96 in /  1014.4 hPa ENE 1.2 mph /  1.9 km/h 3.5 mph /  5.6 km/h 95 % 0.00 in /  0 mm
23:55 41.5 °F /  5.3 °C 40.2 °F /  4.6 °C 29.97 in /  1014.8 hPa Calm   1.2 mph /  1.9 km/h 95 % 0.00 in /  0 mm
Crab Meadow Weather
Compliments of Weather Underground - 3 mb

Script developed by  Jim McMurry - jmcmurry@mwt.net Adapted for the template by  Wim van der Kuil - Leuven-Template.eu

Recycling: In 2006, a record 53.4 percent of the paper consumed in the U.S. was recovered for recycling. Americans recovered an extraordinary 53.5 million tons, averaging 360 pounds per person.